sensor_id;sensor_type;location;lat;lon;timestamp;pressure;altitude;pressure_sealevel;temperature;humidity
66703;BME280;60933;46.398;-63.798;2023-03-25T00:02:15;101052.97;;;-2.91;87.89
66703;BME280;60933;46.398;-63.798;2023-03-25T00:04:41;101074.88;;;-2.90;87.78
66703;BME280;60933;46.398;-63.798;2023-03-25T00:07:07;101082.69;;;-2.84;88.66
66703;BME280;60933;46.398;-63.798;2023-03-25T00:09:33;101102.03;;;-2.84;88.34
66703;BME280;60933;46.398;-63.798;2023-03-25T00:11:59;101100.38;;;-2.84;88.26
66703;BME280;60933;46.398;-63.798;2023-03-25T00:14:25;101103.75;;;-2.83;88.48
66703;BME280;60933;46.398;-63.798;2023-03-25T00:16:51;101108.75;;;-2.85;88.44
66703;BME280;60933;46.398;-63.798;2023-03-25T00:19:19;101098.44;;;-2.91;88.38
66703;BME280;60933;46.398;-63.798;2023-03-25T00:21:47;101119.66;;;-2.86;88.45
66703;BME280;60933;46.398;-63.798;2023-03-25T00:24:16;101122.94;;;-2.89;88.11
66703;BME280;60933;46.398;-63.798;2023-03-25T00:26:43;101128.84;;;-2.88;87.55
66703;BME280;60933;46.398;-63.798;2023-03-25T00:29:11;101128.84;;;-2.88;87.74
66703;BME280;60933;46.398;-63.798;2023-03-25T00:31:38;101155.72;;;-2.90;87.88
66703;BME280;60933;46.398;-63.798;2023-03-25T00:34:05;101153.25;;;-2.89;88.22
66703;BME280;60933;46.398;-63.798;2023-03-25T00:36:31;101152.34;;;-2.91;87.93
66703;BME280;60933;46.398;-63.798;2023-03-25T00:38:57;101169.19;;;-2.91;88.24
66703;BME280;60933;46.398;-63.798;2023-03-25T00:41:26;101165.72;;;-2.93;87.98
66703;BME280;60933;46.398;-63.798;2023-03-25T00:43:54;101183.41;;;-2.93;88.25
66703;BME280;60933;46.398;-63.798;2023-03-25T00:46:23;101172.38;;;-2.95;87.45
66703;BME280;60933;46.398;-63.798;2023-03-25T00:48:52;101179.16;;;-2.94;88.31
66703;BME280;60933;46.398;-63.798;2023-03-25T00:51:19;101186.69;;;-2.96;87.27
66703;BME280;60933;46.398;-63.798;2023-03-25T00:53:56;101177.94;;;-3.04;87.21
66703;BME280;60933;46.398;-63.798;2023-03-25T00:56:25;101192.34;;;-3.02;87.89
66703;BME280;60933;46.398;-63.798;2023-03-25T00:58:52;101200.88;;;-2.99;87.29
66703;BME280;60933;46.398;-63.798;2023-03-25T01:01:20;101203.31;;;-3.01;87.82
66703;BME280;60933;46.398;-63.798;2023-03-25T01:03:52;101208.19;;;-3.06;87.34
66703;BME280;60933;46.398;-63.798;2023-03-25T01:06:41;101209.88;;;-3.06;87.45
66703;BME280;60933;46.398;-63.798;2023-03-25T01:09:12;101208.88;;;-3.10;87.57
66703;BME280;60933;46.398;-63.798;2023-03-25T01:11:40;101207.97;;;-3.12;87.02
66703;BME280;60933;46.398;-63.798;2023-03-25T01:14:15;101220.53;;;-3.13;87.38
66703;BME280;60933;46.398;-63.798;2023-03-25T01:16:42;101234.00;;;-3.13;87.97
66703;BME280;60933;46.398;-63.798;2023-03-25T01:19:09;101225.53;;;-3.15;87.68
66703;BME280;60933;46.398;-63.798;2023-03-25T01:21:36;101232.41;;;-3.11;87.57
66703;BME280;60933;46.398;-63.798;2023-03-25T01:24:06;101227.34;;;-3.11;88.08
66703;BME280;60933;46.398;-63.798;2023-03-25T01:26:33;101245.09;;;-3.09;87.86
66703;BME280;60933;46.398;-63.798;2023-03-25T01:28:59;101252.75;;;-3.08;88.13
66703;BME280;60933;46.398;-63.798;2023-03-25T01:31:25;101246.06;;;-3.06;88.60
66703;BME280;60933;46.398;-63.798;2023-03-25T01:33:57;101256.13;;;-3.07;87.78
66703;BME280;60933;46.398;-63.798;2023-03-25T01:36:25;101262.84;;;-3.08;87.67
66703;BME280;60933;46.398;-63.798;2023-03-25T01:38:54;101280.41;;;-3.11;87.59
66703;BME280;60933;46.398;-63.798;2023-03-25T01:41:23;101285.44;;;-3.11;88.10
66703;BME280;60933;46.398;-63.798;2023-03-25T01:44:05;101295.56;;;-3.11;87.74
66703;BME280;60933;46.398;-63.798;2023-03-25T01:46:32;101294.75;;;-3.10;88.09
66703;BME280;60933;46.398;-63.798;2023-03-25T01:49:00;101308.13;;;-3.12;87.81
66703;BME280;60933;46.398;-63.798;2023-03-25T01:51:31;101307.44;;;-3.08;87.75
66703;BME280;60933;46.398;-63.798;2023-03-25T01:54:00;101312.56;;;-3.07;87.53
66703;BME280;60933;46.398;-63.798;2023-03-25T01:56:32;101315.09;;;-3.07;87.82
66703;BME280;60933;46.398;-63.798;2023-03-25T01:59:05;101306.69;;;-3.06;87.81
66703;BME280;60933;46.398;-63.798;2023-03-25T02:01:32;101321.06;;;-3.05;87.56
66703;BME280;60933;46.398;-63.798;2023-03-25T02:03:59;101320.16;;;-3.07;88.10
66703;BME280;60933;46.398;-63.798;2023-03-25T02:09:04;101333.69;;;-3.05;87.76
66703;BME280;60933;46.398;-63.798;2023-03-25T02:11:37;101341.34;;;-3.03;87.33
66703;BME280;60933;46.398;-63.798;2023-03-25T02:14:07;101325.31;;;-3.04;87.81
66703;BME280;60933;46.398;-63.798;2023-03-25T02:27:46;101329.22;;;-3.10;86.49
66703;BME280;60933;46.398;-63.798;2023-03-25T02:36:00;101338.34;;;-3.14;85.91
66703;BME280;60933;46.398;-63.798;2023-03-25T02:38:58;101340.81;;;-3.15;85.84
66703;BME280;60933;46.398;-63.798;2023-03-25T02:41:41;101353.44;;;-3.15;85.99
66703;BME280;60933;46.398;-63.798;2023-03-25T02:44:16;101346.75;;;-3.15;85.80
66703;BME280;60933;46.398;-63.798;2023-03-25T02:46:48;101355.94;;;-3.17;85.50
66703;BME280;60933;46.398;-63.798;2023-03-25T02:49:21;101347.38;;;-3.21;85.14
66703;BME280;60933;46.398;-63.798;2023-03-25T02:52:14;101342.31;;;-3.21;85.61
66703;BME280;60933;46.398;-63.798;2023-03-25T02:54:42;101348.09;;;-3.23;85.18
66703;BME280;60933;46.398;-63.798;2023-03-25T02:57:12;101325.94;;;-3.30;85.12
66703;BME280;60933;46.398;-63.798;2023-03-25T02:59:40;101334.16;;;-3.35;85.66
66703;BME280;60933;46.398;-63.798;2023-03-25T03:02:09;101347.72;;;-3.32;85.28
66703;BME280;60933;46.398;-63.798;2023-03-25T03:05:18;101351.78;;;-3.36;85.13
66703;BME280;60933;46.398;-63.798;2023-03-25T03:13:29;101362.41;;;-3.43;85.52
66703;BME280;60933;46.398;-63.798;2023-03-25T03:16:12;101366.56;;;-3.44;85.70
66703;BME280;60933;46.398;-63.798;2023-03-25T03:19:45;101360.47;;;-3.49;85.98
66703;BME280;60933;46.398;-63.798;2023-03-25T03:27:30;101375.78;;;-3.46;86.53
66703;BME280;60933;46.398;-63.798;2023-03-25T03:30:19;101379.88;;;-3.48;86.34
66703;BME280;60933;46.398;-63.798;2023-03-25T03:32:51;101373.91;;;-3.50;86.81
66703;BME280;60933;46.398;-63.798;2023-03-25T03:35:29;101378.00;;;-3.52;87.08
66703;BME280;60933;46.398;-63.798;2023-03-25T03:38:02;101373.78;;;-3.53;86.64
66703;BME280;60933;46.398;-63.798;2023-03-25T03:40:33;101373.78;;;-3.53;86.46
66703;BME280;60933;46.398;-63.798;2023-03-25T03:43:07;101374.56;;;-3.54;86.67
66703;BME280;60933;46.398;-63.798;2023-03-25T03:45:47;101385.47;;;-3.55;86.07
66703;BME280;60933;46.398;-63.798;2023-03-25T03:48:23;101381.22;;;-3.56;86.82
66703;BME280;60933;46.398;-63.798;2023-03-25T03:51:27;101370.19;;;-3.58;86.45
66703;BME280;60933;46.398;-63.798;2023-03-25T03:54:02;101378.53;;;-3.59;86.72
66703;BME280;60933;46.398;-63.798;2023-03-25T04:01:56;101379.69;;;-3.53;86.47
66703;BME280;60933;46.398;-63.798;2023-03-25T04:04:24;101389.84;;;-3.51;86.64
66703;BME280;60933;46.398;-63.798;2023-03-25T04:07:00;101390.78;;;-3.49;86.28
66703;BME280;60933;46.398;-63.798;2023-03-25T04:09:48;101384.06;;;-3.48;86.40
66703;BME280;60933;46.398;-63.798;2023-03-25T04:12:31;101389.09;;;-3.48;85.86
66703;BME280;60933;46.398;-63.798;2023-03-25T04:15:00;101389.97;;;-3.48;86.07
66703;BME280;60933;46.398;-63.798;2023-03-25T04:17:31;101391.72;;;-3.47;86.00
66703;BME280;60933;46.398;-63.798;2023-03-25T04:20:00;101393.97;;;-3.53;85.81
66703;BME280;60933;46.398;-63.798;2023-03-25T04:22:31;101392.56;;;-3.46;85.50
66703;BME280;60933;46.398;-63.798;2023-03-25T04:24:57;101394.09;;;-3.50;85.22
66703;BME280;60933;46.398;-63.798;2023-03-25T04:27:25;101399.28;;;-3.47;84.80
66703;BME280;60933;46.398;-63.798;2023-03-25T04:29:54;101405.19;;;-3.46;84.55
66703;BME280;60933;46.398;-63.798;2023-03-25T04:32:22;101407.72;;;-3.46;84.58
66703;BME280;60933;46.398;-63.798;2023-03-25T04:34:53;101402.59;;;-3.48;84.44
66703;BME280;60933;46.398;-63.798;2023-03-25T04:37:26;101398.28;;;-3.51;84.04
66703;BME280;60933;46.398;-63.798;2023-03-25T04:39:53;101397.88;;;-3.60;84.19
66703;BME280;60933;46.398;-63.798;2023-03-25T04:42:25;101418.88;;;-3.61;83.79
66703;BME280;60933;46.398;-63.798;2023-03-25T04:45:00;101426.13;;;-3.69;84.50
66703;BME280;60933;46.398;-63.798;2023-03-25T04:47:26;101426.91;;;-3.70;84.70
66703;BME280;60933;46.398;-63.798;2023-03-25T04:49:52;101413.81;;;-3.80;84.31
66703;BME280;60933;46.398;-63.798;2023-03-25T04:52:18;101432.59;;;-3.74;85.10
66703;BME280;60933;46.398;-63.798;2023-03-25T04:54:45;101430.00;;;-3.75;85.50
66703;BME280;60933;46.398;-63.798;2023-03-25T04:57:11;101445.09;;;-3.77;85.35
66703;BME280;60933;46.398;-63.798;2023-03-25T04:59:37;101446.72;;;-3.77;85.32
66703;BME280;60933;46.398;-63.798;2023-03-25T05:02:04;101446.66;;;-3.79;85.48
66703;BME280;60933;46.398;-63.798;2023-03-25T05:04:32;101440.69;;;-3.81;85.88
66703;BME280;60933;46.398;-63.798;2023-03-25T05:06:58;101441.47;;;-3.82;86.07
66703;BME280;60933;46.398;-63.798;2023-03-25T05:09:24;101447.31;;;-3.83;86.15
66703;BME280;60933;46.398;-63.798;2023-03-25T05:11:52;101459.00;;;-3.85;85.72
66703;BME280;60933;46.398;-63.798;2023-03-25T05:14:20;101456.28;;;-3.90;85.47
66703;BME280;60933;46.398;-63.798;2023-03-25T05:16:47;101466.31;;;-3.91;86.03
66703;BME280;60933;46.398;-63.798;2023-03-25T05:19:14;101458.44;;;-3.98;85.98
66703;BME280;60933;46.398;-63.798;2023-03-25T05:21:41;101472.13;;;-3.92;86.16
66703;BME280;60933;46.398;-63.798;2023-03-25T05:24:09;101466.00;;;-3.98;86.19
66703;BME280;60933;46.398;-63.798;2023-03-25T05:26:37;101460.84;;;-4.01;86.00
66703;BME280;60933;46.398;-63.798;2023-03-25T05:29:11;101474.88;;;-4.06;85.96
66703;BME280;60933;46.398;-63.798;2023-03-25T05:31:42;101482.25;;;-4.10;85.75
66703;BME280;60933;46.398;-63.798;2023-03-25T05:34:10;101474.13;;;-4.21;85.92
66703;BME280;60933;46.398;-63.798;2023-03-25T05:36:39;101493.69;;;-4.17;86.22
66703;BME280;60933;46.398;-63.798;2023-03-25T05:39:06;101486.75;;;-4.21;86.28
66703;BME280;60933;46.398;-63.798;2023-03-25T05:41:33;101497.00;;;-4.18;86.40
66703;BME280;60933;46.398;-63.798;2023-03-25T05:44:08;101500.31;;;-4.19;86.48
66703;BME280;60933;46.398;-63.798;2023-03-25T05:46:34;101507.25;;;-4.15;86.42
66703;BME280;60933;46.398;-63.798;2023-03-25T05:49:00;101495.13;;;-4.22;87.21
66703;BME280;60933;46.398;-63.798;2023-03-25T05:51:27;101512.50;;;-4.10;87.02
66703;BME280;60933;46.398;-63.798;2023-03-25T05:53:53;101514.31;;;-4.08;87.03
66703;BME280;60933;46.398;-63.798;2023-03-25T05:56:21;101513.34;;;-4.10;87.00
66703;BME280;60933;46.398;-63.798;2023-03-25T05:58:49;101496.28;;;-4.16;86.96
66703;BME280;60933;46.398;-63.798;2023-03-25T06:01:16;101510.53;;;-4.16;87.13
66703;BME280;60933;46.398;-63.798;2023-03-25T06:03:44;101527.41;;;-4.15;87.71
66703;BME280;60933;46.398;-63.798;2023-03-25T06:06:11;101531.66;;;-4.14;87.27
66703;BME280;60933;46.398;-63.798;2023-03-25T06:08:46;101532.59;;;-4.12;87.50
66703;BME280;60933;46.398;-63.798;2023-03-25T06:11:12;101530.00;;;-4.14;87.29
66703;BME280;60933;46.398;-63.798;2023-03-25T06:13:39;101525.81;;;-4.13;87.50
66703;BME280;60933;46.398;-63.798;2023-03-25T06:16:07;101522.38;;;-4.15;87.57
66703;BME280;60933;46.398;-63.798;2023-03-25T06:18:34;101535.03;;;-4.14;87.61
66703;BME280;60933;46.398;-63.798;2023-03-25T06:21:01;101529.06;;;-4.16;87.48
66703;BME280;60933;46.398;-63.798;2023-03-25T06:23:28;101528.03;;;-4.19;87.46
66703;BME280;60933;46.398;-63.798;2023-03-25T06:25:54;101539.78;;;-4.20;87.80
66703;BME280;60933;46.398;-63.798;2023-03-25T06:28:20;101542.38;;;-4.18;87.58
66703;BME280;60933;46.398;-63.798;2023-03-25T06:30:47;101550.66;;;-4.21;87.87
66703;BME280;60933;46.398;-63.798;2023-03-25T06:33:14;101569.50;;;-4.14;87.38
66703;BME280;60933;46.398;-63.798;2023-03-25T06:35:46;101577.97;;;-4.12;87.55
66703;BME280;60933;46.398;-63.798;2023-03-25T06:38:19;101578.13;;;-4.09;87.63
66703;BME280;60933;46.398;-63.798;2023-03-25T06:40:48;101585.63;;;-4.10;87.30
66703;BME280;60933;46.398;-63.798;2023-03-25T06:43:15;101594.84;;;-4.11;87.46
66703;BME280;60933;46.398;-63.798;2023-03-25T06:45:40;101594.84;;;-4.11;87.14
66703;BME280;60933;46.398;-63.798;2023-03-25T06:48:07;101599.03;;;-4.11;87.25
66703;BME280;60933;46.398;-63.798;2023-03-25T06:50:33;101590.53;;;-4.14;87.31
66703;BME280;60933;46.398;-63.798;2023-03-25T06:52:59;101599.94;;;-4.09;87.28
66703;BME280;60933;46.398;-63.798;2023-03-25T06:55:28;101598.25;;;-4.10;87.82
66703;BME280;60933;46.398;-63.798;2023-03-25T06:57:54;101600.75;;;-4.10;87.41
66703;BME280;60933;46.398;-63.798;2023-03-25T07:00:20;101598.16;;;-4.12;87.17
66703;BME280;60933;46.398;-63.798;2023-03-25T07:02:48;101594.72;;;-4.14;87.55
66703;BME280;60933;46.398;-63.798;2023-03-25T07:05:15;101596.28;;;-4.16;87.67
66703;BME280;60933;46.398;-63.798;2023-03-25T07:07:40;101593.81;;;-4.15;87.75
66703;BME280;60933;46.398;-63.798;2023-03-25T07:10:07;101588.72;;;-4.16;87.66
66703;BME280;60933;46.398;-63.798;2023-03-25T07:12:36;101594.53;;;-4.17;87.78
66703;BME280;60933;46.398;-63.798;2023-03-25T07:15:02;101584.28;;;-4.20;87.66
66703;BME280;60933;46.398;-63.798;2023-03-25T07:17:28;101589.34;;;-4.20;87.47
66703;BME280;60933;46.398;-63.798;2023-03-25T07:19:54;101597.13;;;-4.16;88.08
66703;BME280;60933;46.398;-63.798;2023-03-25T07:22:20;101574.38;;;-4.17;88.02
66703;BME280;60933;46.398;-63.798;2023-03-25T07:24:46;101587.22;;;-4.13;87.66
66703;BME280;60933;46.398;-63.798;2023-03-25T07:27:13;101577.13;;;-4.13;88.39
66703;BME280;60933;46.398;-63.798;2023-03-25T07:29:40;101586.31;;;-4.13;87.80
66703;BME280;60933;46.398;-63.798;2023-03-25T07:32:06;101581.44;;;-4.10;88.28
66703;BME280;60933;46.398;-63.798;2023-03-25T07:34:32;101579.00;;;-4.08;87.98
66703;BME280;60933;46.398;-63.798;2023-03-25T07:36:58;101584.91;;;-4.08;88.19
66703;BME280;60933;46.398;-63.798;2023-03-25T07:39:24;101583.31;;;-4.06;88.17
66703;BME280;60933;46.398;-63.798;2023-03-25T07:41:51;101581.66;;;-4.05;88.44
66703;BME280;60933;46.398;-63.798;2023-03-25T07:44:18;101579.94;;;-4.06;87.68
66703;BME280;60933;46.398;-63.798;2023-03-25T07:46:47;101582.63;;;-4.03;87.91
66703;BME280;60933;46.398;-63.798;2023-03-25T07:49:14;101582.47;;;-4.06;87.97
66703;BME280;60933;46.398;-63.798;2023-03-25T07:51:41;101590.09;;;-4.05;88.36
66703;BME280;60933;46.398;-63.798;2023-03-25T07:54:08;101599.38;;;-4.04;88.15
66703;BME280;60933;46.398;-63.798;2023-03-25T07:56:34;101606.94;;;-4.04;87.84
66703;BME280;60933;46.398;-63.798;2023-03-25T07:59:00;101607.75;;;-4.05;87.24
66703;BME280;60933;46.398;-63.798;2023-03-25T08:01:26;101607.50;;;-4.09;87.70
66703;BME280;60933;46.398;-63.798;2023-03-25T08:03:52;101618.47;;;-4.09;87.56
66703;BME280;60933;46.398;-63.798;2023-03-25T08:06:18;101603.78;;;-4.18;87.54
66703;BME280;60933;46.398;-63.798;2023-03-25T08:08:44;101620.78;;;-4.14;87.70
66703;BME280;60933;46.398;-63.798;2023-03-25T08:11:10;101629.91;;;-4.16;87.60
66703;BME280;60933;46.398;-63.798;2023-03-25T08:13:37;101626.38;;;-4.19;87.67
66703;BME280;60933;46.398;-63.798;2023-03-25T08:16:10;101631.53;;;-4.18;87.17
66703;BME280;60933;46.398;-63.798;2023-03-25T08:18:36;101622.13;;;-4.20;87.26
66703;BME280;60933;46.398;-63.798;2023-03-25T08:21:03;101634.81;;;-4.19;87.46
66703;BME280;60933;46.398;-63.798;2023-03-25T08:23:29;101641.50;;;-4.19;87.33
66703;BME280;60933;46.398;-63.798;2023-03-25T08:25:55;101645.75;;;-4.18;87.05
66703;BME280;60933;46.398;-63.798;2023-03-25T08:28:21;101642.38;;;-4.19;87.35
66703;BME280;60933;46.398;-63.798;2023-03-25T08:30:51;101644.97;;;-4.17;87.44
66703;BME280;60933;46.398;-63.798;2023-03-25T08:33:21;101645.75;;;-4.18;87.54
66703;BME280;60933;46.398;-63.798;2023-03-25T08:35:52;101656.81;;;-4.16;88.19
66703;BME280;60933;46.398;-63.798;2023-03-25T08:38:18;101652.53;;;-4.17;87.48
66703;BME280;60933;46.398;-63.798;2023-03-25T08:40:47;101650.09;;;-4.16;88.14
66703;BME280;60933;46.398;-63.798;2023-03-25T08:43:13;101654.34;;;-4.15;87.45
66703;BME280;60933;46.398;-63.798;2023-03-25T08:45:39;101655.06;;;-4.17;87.81
66703;BME280;60933;46.398;-63.798;2023-03-25T08:48:05;101659.38;;;-4.15;87.88
66703;BME280;60933;46.398;-63.798;2023-03-25T08:50:32;101668.63;;;-4.15;87.43
66703;BME280;60933;46.398;-63.798;2023-03-25T08:52:58;101693.97;;;-4.12;87.55
66703;BME280;60933;46.398;-63.798;2023-03-25T08:55:24;101714.16;;;-4.12;87.75
66703;BME280;60933;46.398;-63.798;2023-03-25T08:57:50;101733.78;;;-4.06;87.58
66703;BME280;60933;46.398;-63.798;2023-03-25T09:00:16;101746.47;;;-4.05;87.93
66703;BME280;60933;46.398;-63.798;2023-03-25T09:02:48;101757.44;;;-4.04;87.63
66703;BME280;60933;46.398;-63.798;2023-03-25T09:05:15;101748.38;;;-4.01;87.73
66703;BME280;60933;46.398;-63.798;2023-03-25T09:07:40;101764.28;;;-4.02;87.19
66703;BME280;60933;46.398;-63.798;2023-03-25T09:10:08;101765.84;;;-4.04;87.03
66703;BME280;60933;46.398;-63.798;2023-03-25T09:12:34;101774.38;;;-4.02;87.13
66703;BME280;60933;46.398;-63.798;2023-03-25T09:15:00;101779.41;;;-4.02;87.30
66703;BME280;60933;46.398;-63.798;2023-03-25T09:17:26;101788.63;;;-4.02;86.71
66703;BME280;60933;46.398;-63.798;2023-03-25T09:19:52;101794.38;;;-4.05;86.65
66703;BME280;60933;46.398;-63.798;2023-03-25T09:22:18;101795.16;;;-4.06;86.40
66703;BME280;60933;46.398;-63.798;2023-03-25T09:24:45;101801.88;;;-4.06;86.72
66703;BME280;60933;46.398;-63.798;2023-03-25T09:27:11;101801.94;;;-4.05;86.68
66703;BME280;60933;46.398;-63.798;2023-03-25T09:29:37;101802.91;;;-4.03;86.59
66703;BME280;60933;46.398;-63.798;2023-03-25T09:32:03;101800.38;;;-4.03;86.76
66703;BME280;60933;46.398;-63.798;2023-03-25T09:34:29;101810.53;;;-4.01;86.65
66703;BME280;60933;46.398;-63.798;2023-03-25T09:36:55;101820.72;;;-4.00;86.73
66703;BME280;60933;46.398;-63.798;2023-03-25T09:39:21;101819.94;;;-3.99;86.32
66703;BME280;60933;46.398;-63.798;2023-03-25T09:44:35;101816.06;;;-3.92;86.61
66703;BME280;60933;46.398;-63.798;2023-03-25T09:47:03;101822.91;;;-3.89;86.78
66703;BME280;60933;46.398;-63.798;2023-03-25T09:49:40;101833.19;;;-3.86;86.84
66703;BME280;60933;46.398;-63.798;2023-03-25T09:52:15;101824.84;;;-3.85;87.08
66703;BME280;60933;46.398;-63.798;2023-03-25T09:54:49;101829.94;;;-3.84;86.64
66703;BME280;60933;46.398;-63.798;2023-03-25T09:57:21;101840.03;;;-3.84;86.63
66703;BME280;60933;46.398;-63.798;2023-03-25T09:59:52;101838.28;;;-3.85;86.86
66703;BME280;60933;46.398;-63.798;2023-03-25T10:02:42;101827.34;;;-3.85;87.33
66703;BME280;60933;46.398;-63.798;2023-03-25T10:08:26;101858.41;;;-3.86;86.81
66703;BME280;60933;46.398;-63.798;2023-03-25T10:11:00;101861.72;;;-3.87;86.53
66703;BME280;60933;46.398;-63.798;2023-03-25T10:13:53;101863.38;;;-3.88;86.49
66703;BME280;60933;46.398;-63.798;2023-03-25T10:26:29;101895.00;;;-3.78;86.80
66703;BME280;60933;46.398;-63.798;2023-03-25T10:29:03;101901.09;;;-3.74;86.96
66703;BME280;60933;46.398;-63.798;2023-03-25T10:31:38;101887.75;;;-3.72;86.90
66703;BME280;60933;46.398;-63.798;2023-03-25T10:34:13;101885.41;;;-3.69;86.89
66703;BME280;60933;46.398;-63.798;2023-03-25T10:36:48;101897.38;;;-3.64;86.78
66703;BME280;60933;46.398;-63.798;2023-03-25T10:39:21;101904.34;;;-3.60;86.96
66703;BME280;60933;46.398;-63.798;2023-03-25T10:44:40;101932.47;;;-3.53;86.39
66703;BME280;60933;46.398;-63.798;2023-03-25T10:47:11;101924.84;;;-3.54;86.05
66703;BME280;60933;46.398;-63.798;2023-03-25T10:49:40;101937.78;;;-3.48;85.94
66703;BME280;60933;46.398;-63.798;2023-03-25T10:52:07;101933.75;;;-3.44;85.76
66703;BME280;60933;46.398;-63.798;2023-03-25T10:54:38;101910.97;;;-3.46;85.73
66703;BME280;60933;46.398;-63.798;2023-03-25T10:57:08;101931.41;;;-3.41;85.18
66703;BME280;60933;46.398;-63.798;2023-03-25T10:59:42;101943.31;;;-3.39;85.40
66703;BME280;60933;46.398;-63.798;2023-03-25T11:02:14;101942.72;;;-3.33;84.97
66703;BME280;60933;46.398;-63.798;2023-03-25T11:04:43;101943.63;;;-3.32;84.53
66703;BME280;60933;46.398;-63.798;2023-03-25T11:07:22;101945.13;;;-3.20;84.74
66703;BME280;60933;46.398;-63.798;2023-03-25T11:09:51;101948.50;;;-3.03;84.31
66703;BME280;60933;46.398;-63.798;2023-03-25T11:12:19;101937.09;;;-2.94;83.33
66703;BME280;60933;46.398;-63.798;2023-03-25T11:14:54;101950.03;;;-2.88;83.73
66703;BME280;60933;46.398;-63.798;2023-03-25T11:17:24;101956.06;;;-2.86;82.75
66703;BME280;60933;46.398;-63.798;2023-03-25T11:19:52;101951.00;;;-2.86;82.92
66703;BME280;60933;46.398;-63.798;2023-03-25T11:22:30;101969.78;;;-2.81;82.72
66703;BME280;60933;46.398;-63.798;2023-03-25T11:25:03;101970.78;;;-2.77;82.77
66703;BME280;60933;46.398;-63.798;2023-03-25T11:27:39;101980.41;;;-2.70;81.91
66703;BME280;60933;46.398;-63.798;2023-03-25T11:30:16;101999.22;;;-2.65;81.37
66703;BME280;60933;46.398;-63.798;2023-03-25T11:32:42;102000.16;;;-2.63;81.09
66703;BME280;60933;46.398;-63.798;2023-03-25T11:35:17;102003.13;;;-2.53;80.81
66703;BME280;60933;46.398;-63.798;2023-03-25T11:37:52;102005.81;;;-2.50;80.37
66703;BME280;60933;46.398;-63.798;2023-03-25T11:40:19;102012.97;;;-2.42;79.85
66703;BME280;60933;46.398;-63.798;2023-03-25T11:42:56;102014.66;;;-2.42;79.17
66703;BME280;60933;46.398;-63.798;2023-03-25T11:45:27;102021.44;;;-2.41;79.17
66703;BME280;60933;46.398;-63.798;2023-03-25T11:47:58;102027.66;;;-2.34;78.23
66703;BME280;60933;46.398;-63.798;2023-03-25T11:50:28;102033.97;;;-2.26;78.68
66703;BME280;60933;46.398;-63.798;2023-03-25T11:52:58;102043.59;;;-2.19;78.62
66703;BME280;60933;46.398;-63.798;2023-03-25T11:55:31;102031.94;;;-2.15;78.16
66703;BME280;60933;46.398;-63.798;2023-03-25T11:58:01;102027.91;;;-2.12;77.53
66703;BME280;60933;46.398;-63.798;2023-03-25T12:00:39;102025.38;;;-1.94;77.07
66703;BME280;60933;46.398;-63.798;2023-03-25T12:08:47;102014.56;;;-1.16;74.81
66703;BME280;60933;46.398;-63.798;2023-03-25T12:22:53;102029.03;;;-1.13;71.78
66703;BME280;60933;46.398;-63.798;2023-03-25T12:25:40;102040.53;;;-1.20;71.58
66703;BME280;60933;46.398;-63.798;2023-03-25T12:28:41;102035.63;;;-1.17;71.56
66703;BME280;60933;46.398;-63.798;2023-03-25T12:34:14;102036.56;;;-0.95;72.40
66703;BME280;60933;46.398;-63.798;2023-03-25T12:52:51;102053.75;;;-0.68;71.03
66703;BME280;60933;46.398;-63.798;2023-03-25T12:55:39;102066.03;;;-0.58;71.56
66703;BME280;60933;46.398;-63.798;2023-03-25T13:03:56;102063.09;;;-0.26;70.08
66703;BME280;60933;46.398;-63.798;2023-03-25T13:09:10;102064.22;;;-0.20;69.29
66703;BME280;60933;46.398;-63.798;2023-03-25T13:14:27;102063.34;;;0.01;68.70
66703;BME280;60933;46.398;-63.798;2023-03-25T13:16:59;102045.00;;;0.08;68.37
66703;BME280;60933;46.398;-63.798;2023-03-25T13:19:29;102064.22;;;0.23;67.62
66703;BME280;60933;46.398;-63.798;2023-03-25T13:22:03;102060.72;;;0.21;66.86
66703;BME280;60933;46.398;-63.798;2023-03-25T13:24:37;102067.72;;;0.26;67.03
66703;BME280;60933;46.398;-63.798;2023-03-25T13:27:05;102055.31;;;0.34;67.21
66703;BME280;60933;46.398;-63.798;2023-03-25T13:29:35;102063.56;;;0.28;66.35
66703;BME280;60933;46.398;-63.798;2023-03-25T13:32:06;102063.28;;;0.43;66.46
66703;BME280;60933;46.398;-63.798;2023-03-25T13:35:06;102086.69;;;0.57;65.09
66703;BME280;60933;46.398;-63.798;2023-03-25T13:37:40;102055.84;;;0.71;64.70
66703;BME280;60933;46.398;-63.798;2023-03-25T13:45:22;102110.53;;;1.06;62.77
66703;BME280;60933;46.398;-63.798;2023-03-25T13:48:06;102096.50;;;1.18;62.35
66703;BME280;60933;46.398;-63.798;2023-03-25T13:50:35;102101.88;;;1.25;61.80
66703;BME280;60933;46.398;-63.798;2023-03-25T13:53:13;102122.50;;;1.33;61.30
66703;BME280;60933;46.398;-63.798;2023-03-25T13:58:51;102107.34;;;1.36;60.38
66703;BME280;60933;46.398;-63.798;2023-03-25T14:01:35;102081.81;;;1.59;60.86
66703;BME280;60933;46.398;-63.798;2023-03-25T14:12:20;102066.72;;;2.18;59.09
66703;BME280;60933;46.398;-63.798;2023-03-25T14:15:17;102056.91;;;2.29;58.26
66703;BME280;60933;46.398;-63.798;2023-03-25T14:17:45;102061.25;;;2.33;57.93
66703;BME280;60933;46.398;-63.798;2023-03-25T14:20:35;102063.47;;;2.50;58.25
66703;BME280;60933;46.398;-63.798;2023-03-25T14:23:07;102072.56;;;2.42;57.77
66703;BME280;60933;46.398;-63.798;2023-03-25T14:25:39;102075.78;;;2.36;58.35
66703;BME280;60933;46.398;-63.798;2023-03-25T14:28:12;102060.72;;;2.44;58.52
66703;BME280;60933;46.398;-63.798;2023-03-25T14:30:41;102068.88;;;2.32;57.77
66703;BME280;60933;46.398;-63.798;2023-03-25T14:33:10;102066.81;;;2.49;57.45
66703;BME280;60933;46.398;-63.798;2023-03-25T14:35:44;102071.81;;;2.46;57.71
66703;BME280;60933;46.398;-63.798;2023-03-25T14:40:48;102093.44;;;2.59;58.70
66703;BME280;60933;46.398;-63.798;2023-03-25T14:43:36;102119.28;;;2.98;58.15
66703;BME280;60933;46.398;-63.798;2023-03-25T14:51:43;102141.19;;;2.63;57.94
66703;BME280;60933;46.398;-63.798;2023-03-25T14:54:29;102156.84;;;2.75;58.55
66703;BME280;60933;46.398;-63.798;2023-03-25T14:57:17;102167.91;;;2.76;57.97